Time;durP1;ratioP1;P1;durP2;ratioP2;P2;SDS_P1;SDS_P2;PMS_P1;PMS_P2;Temp;Humidity;BMP_temperature;BMP_pressure;BME280_temperature;BME280_humidity;BME280_pressure;Samples;Min_cycle;Max_cycle;Signal;HPM_P1;HPM_P2
2023/12/21 00:01:36;;;;;;;23.00;19.47;;;;;;;2.91;98.21;92180.56;5069633;28;20204;-74
2023/12/21 00:04:03;;;;;;;25.87;19.70;;;;;;;2.39;97.83;92120.22;5065385;28;20263;-76
2023/12/21 00:06:28;;;;;;;24.77;20.73;;;;;;;3.02;97.75;92205.41;5067986;28;20188;-76
2023/12/21 00:08:54;;;;;;;28.33;20.07;;;;;;;2.83;96.73;92188.72;5062668;28;20186;-75
2023/12/21 00:11:19;;;;;;;24.97;19.50;;;;;;;2.76;97.36;92190.69;5069345;28;20275;-75
2023/12/21 00:13:45;;;;;;;24.60;20.07;;;;;;;2.65;97.46;92192.41;5044341;28;20202;-75
2023/12/21 00:16:10;;;;;;;29.00;21.33;;;;;;;2.43;97.70;92186.47;5048112;28;20225;-79
2023/12/21 00:18:36;;;;;;;27.70;21.63;;;;;;;2.67;97.59;92184.41;5046311;28;20226;-75
2023/12/21 00:21:02;;;;;;;30.60;22.53;;;;;;;2.78;96.86;92179.16;5044389;28;20231;-75
2023/12/21 00:23:27;;;;;;;26.77;22.23;;;;;;;2.78;97.32;92188.66;5047262;28;20230;-75
2023/12/21 00:25:53;;;;;;;31.83;21.20;;;;;;;2.55;97.84;92152.88;5048384;28;20198;-74
2023/12/21 00:28:18;;;;;;;25.50;19.27;;;;;;;2.77;98.10;92192.28;5059320;28;20246;-76
2023/12/21 00:30:43;;;;;;;24.93;18.20;;;;;;;2.53;98.66;92168.56;5068839;28;20185;-74
2023/12/21 00:33:09;;;;;;;25.60;18.63;;;;;;;2.50;98.73;92197.38;5061142;28;20551;-75
2023/12/21 00:35:34;;;;;;;25.63;18.97;;;;;;;2.56;98.96;92201.56;5062200;28;20489;-75
2023/12/21 00:38:00;;;;;;;27.07;18.27;;;;;;;2.42;99.19;92184.13;5042270;28;20222;-75
2023/12/21 00:40:26;;;;;;;24.57;18.73;;;;;;;2.54;99.67;92224.22;5045219;28;20186;-75
2023/12/21 00:42:51;;;;;;;28.13;19.77;;;;;;;2.71;99.43;92211.25;5049680;28;20212;-75
2023/12/21 00:45:18;;;;;;;25.03;18.53;;;;;;;2.74;99.05;92213.38;5051066;28;20194;-75
2023/12/21 00:47:43;;;;;;;28.73;20.30;;;;;;;2.53;99.04;92214.94;5049799;28;20236;-74
2023/12/21 00:50:09;;;;;;;28.43;19.90;;;;;;;2.64;98.72;92226.13;5053602;28;20249;-75
2023/12/21 00:52:35;;;;;;;27.43;19.50;;;;;;;2.72;98.12;92234.22;5057966;28;20244;-75
2023/12/21 00:55:01;;;;;;;23.83;18.83;;;;;;;2.54;98.77;92207.97;5071154;28;20457;-74
2023/12/21 00:57:26;;;;;;;25.40;19.70;;;;;;;2.20;98.47;92221.94;5067562;28;20225;-75
2023/12/21 00:59:51;;;;;;;26.73;19.53;;;;;;;2.42;99.38;92220.97;5070122;28;20190;-74
2023/12/21 01:02:18;;;;;;;21.60;19.10;;;;;;;2.54;98.25;92228.56;5063666;28;20221;-74
2023/12/21 01:04:43;;;;;;;24.33;20.17;;;;;;;2.54;97.81;92223.41;5059774;28;20201;-75
2023/12/21 01:07:08;;;;;;;21.57;17.60;;;;;;;2.15;98.96;92178.13;5071166;28;20229;-75
2023/12/21 01:09:34;;;;;;;23.80;18.73;;;;;;;2.64;98.57;92208.09;5061358;28;20178;-75
2023/12/21 01:11:59;;;;;;;27.93;18.87;;;;;;;2.61;98.98;92200.84;5061936;28;20286;-75
2023/12/21 01:14:24;;;;;;;23.27;19.00;;;;;;;2.86;98.34;92216.59;5067888;28;20196;-74
2023/12/21 01:16:50;;;;;;;26.60;20.00;;;;;;;2.80;98.66;92217.56;5061396;28;20237;-75
2023/12/21 01:19:15;;;;;;;26.03;18.70;;;;;;;2.74;98.64;92198.69;5059343;28;20212;-75
2023/12/21 01:21:40;;;;;;;25.57;18.47;;;;;;;2.72;98.31;92226.50;5068701;28;20236;-75
2023/12/21 01:24:06;;;;;;;27.00;21.03;;;;;;;2.72;98.26;92218.78;5067052;28;20236;-75
2023/12/21 01:26:31;;;;;;;23.63;18.23;;;;;;;2.45;98.84;92187.00;5070908;28;20280;-75
2023/12/21 01:28:56;;;;;;;23.20;18.53;;;;;;;2.56;98.81;92211.09;5052192;28;20170;-74
2023/12/21 01:31:22;;;;;;;26.43;19.93;;;;;;;2.23;99.86;92195.72;5052663;28;20212;-75
2023/12/21 01:33:47;;;;;;;24.00;20.63;;;;;;;2.57;99.62;92213.41;5071820;28;20174;-74
2023/12/21 01:36:13;;;;;;;21.40;19.13;;;;;;;2.46;99.26;92211.75;5069397;28;20252;-75
2023/12/21 01:38:38;;;;;;;22.93;19.10;;;;;;;2.45;99.16;92209.41;5051306;28;20264;-75
2023/12/21 01:41:03;;;;;;;29.50;18.53;;;;;;;2.66;98.68;92211.22;5051181;28;20170;-75
2023/12/21 01:43:29;;;;;;;21.80;19.50;;;;;;;2.32;98.88;92181.44;5039217;28;20234;-75
2023/12/21 01:45:57;;;;;;;26.97;21.33;;;;;;;2.05;100.00;92203.72;5038820;28;20210;-75
2023/12/21 01:48:23;;;;;;;20.87;18.00;;;;;;;2.23;99.70;92188.00;5051487;28;20226;-75
2023/12/21 01:50:49;;;;;;;22.90;19.30;;;;;;;2.28;99.84;92177.78;5038298;28;20191;-75
2023/12/21 01:53:16;;;;;;;22.77;19.87;;;;;;;2.13;100.00;92191.25;5052011;28;20214;-75
2023/12/21 01:55:43;;;;;;;30.50;22.77;;;;;;;1.86;100.00;92174.13;5040707;28;20197;-75
2023/12/21 01:58:09;;;;;;;34.23;23.43;;;;;;;2.51;100.00;92191.19;5059728;28;20237;-75
2023/12/21 02:00:35;;;;;;;36.83;24.57;;;;;;;2.48;100.00;92172.88;5068551;28;20209;-76
2023/12/21 02:03:01;;;;;;;36.47;26.20;;;;;;;2.52;100.00;92169.56;5065072;28;20244;-75
2023/12/21 02:05:26;;;;;;;20.73;16.90;;;;;;;3.12;100.00;92128.94;5069622;28;20181;-75
2023/12/21 02:07:52;;;;;;;29.10;21.67;;;;;;;3.29;97.96;92164.94;5056307;28;20229;-75
2023/12/21 02:10:18;;;;;;;32.63;25.07;;;;;;;3.15;97.68;92171.50;5038993;28;20190;-75
2023/12/21 02:12:43;;;;;;;35.27;26.97;;;;;;;3.12;97.59;92149.59;5038525;28;20218;-75
2023/12/21 02:15:10;;;;;;;34.57;27.37;;;;;;;3.44;95.81;92172.78;5050498;28;20197;-75
2023/12/21 02:17:36;;;;;;;40.97;26.63;;;;;;;3.43;96.00;92186.72;5044184;28;20227;-76
2023/12/21 02:20:02;;;;;;;44.27;27.57;;;;;;;3.04;96.80;92182.75;5043342;28;20213;-75
2023/12/21 02:22:28;;;;;;;43.70;28.17;;;;;;;3.24;96.45;92193.25;5048874;28;20232;-74
2023/12/21 02:24:55;;;;;;;47.57;32.57;;;;;;;3.12;96.13;92175.38;5045483;28;20214;-76
2023/12/21 02:27:21;;;;;;;39.93;29.83;;;;;;;2.94;98.44;92208.44;5046714;28;20261;-75
2023/12/21 02:29:46;;;;;;;43.10;29.97;;;;;;;2.71;98.17;92180.34;5050200;28;20178;-76
2023/12/21 02:32:12;;;;;;;41.40;29.33;;;;;;;2.76;98.57;92186.34;5054383;28;20227;-75
2023/12/21 02:34:37;;;;;;;41.03;28.73;;;;;;;2.66;99.50;92193.94;5067581;28;20189;-76
2023/12/21 02:37:02;;;;;;;40.53;28.67;;;;;;;2.74;99.19;92196.09;5069784;28;20209;-77
2023/12/21 02:39:28;;;;;;;38.93;29.70;;;;;;;2.62;99.27;92180.00;5060759;28;20218;-76
2023/12/21 02:41:54;;;;;;;35.53;28.10;;;;;;;2.78;99.69;92197.19;5071833;28;20221;-74
2023/12/21 02:44:20;;;;;;;38.00;27.43;;;;;;;2.78;99.58;92189.47;5069034;28;20241;-75
2023/12/21 02:46:45;;;;;;;38.13;27.23;;;;;;;2.66;99.55;92195.75;5068946;28;20225;-75
2023/12/21 02:49:10;;;;;;;40.10;27.33;;;;;;;2.85;99.14;92204.72;5073264;28;20244;-74
2023/12/21 02:51:35;;;;;;;41.63;28.50;;;;;;;2.58;100.00;92209.06;5062327;28;20174;-74
2023/12/21 02:54:01;;;;;;;36.33;28.40;;;;;;;2.81;100.00;92203.66;5065232;28;20182;-74
2023/12/21 02:56:26;;;;;;;36.33;27.87;;;;;;;2.53;99.62;92163.41;5063777;28;20186;-74
2023/12/21 02:58:52;;;;;;;36.17;28.30;;;;;;;2.80;99.44;92191.78;5061259;28;20194;-73
2023/12/21 03:01:17;;;;;;;39.37;29.73;;;;;;;2.83;99.98;92206.78;5062732;28;20190;-74
2023/12/21 03:03:42;;;;;;;40.20;29.97;;;;;;;2.57;99.15;92181.75;5067177;28;20221;-75
2023/12/21 03:06:08;;;;;;;42.13;29.43;;;;;;;2.73;100.00;92184.25;5069620;28;20211;-73
2023/12/21 03:08:33;;;;;;;39.90;29.37;;;;;;;2.72;99.74;92190.44;5069539;28;20209;-74
2023/12/21 03:10:59;;;;;;;39.80;30.07;;;;;;;2.69;99.73;92201.19;5077036;28;20187;-74
2023/12/21 03:13:24;;;;;;;40.27;28.97;;;;;;;2.52;99.97;92184.25;5054799;28;20218;-74
2023/12/21 03:15:49;;;;;;;42.80;30.30;;;;;;;2.51;99.46;92177.53;5068484;28;20209;-74
2023/12/21 03:18:15;;;;;;;39.80;29.17;;;;;;;2.48;99.42;92201.97;5069454;28;20217;-74
2023/12/21 03:20:40;;;;;;;44.67;31.07;;;;;;;2.40;99.87;92201.59;5053917;28;20252;-73
2023/12/21 03:23:06;;;;;;;40.57;28.57;;;;;;;2.43;100.00;92208.88;5061437;28;20225;-73
2023/12/21 03:25:31;;;;;;;33.30;27.57;;;;;;;2.19;99.87;92184.34;5069633;28;20205;-74
2023/12/21 03:27:56;;;;;;;37.50;28.57;;;;;;;2.38;99.70;92216.53;5058255;28;20221;-74
2023/12/21 03:30:22;;;;;;;40.03;26.87;;;;;;;2.31;99.55;92203.03;5062138;28;20193;-74
2023/12/21 03:32:48;;;;;;;33.07;26.57;;;;;;;2.16;99.51;92195.13;5066871;28;20236;-73
2023/12/21 03:35:13;;;;;;;32.60;26.90;;;;;;;2.10;100.00;92190.94;5068279;28;20207;-73
2023/12/21 03:37:39;;;;;;;36.57;26.90;;;;;;;1.99;100.00;92225.28;5069476;28;20280;-74
2023/12/21 03:40:06;;;;;;;38.73;26.10;;;;;;;2.35;100.00;92217.03;5068420;28;20173;-74
2023/12/21 03:42:32;;;;;;;33.97;24.20;;;;;;;2.03;100.00;92169.72;5068672;28;20281;-74
2023/12/21 03:44:57;;;;;;;33.83;25.10;;;;;;;2.24;100.00;92215.34;5062769;28;20225;-72
2023/12/21 03:47:22;;;;;;;31.37;25.30;;;;;;;2.41;100.00;92213.50;5053736;28;20248;-74
2023/12/21 03:49:48;;;;;;;27.77;24.67;;;;;;;2.58;100.00;92212.41;5068438;28;20197;-74
2023/12/21 03:52:13;;;;;;;29.80;22.90;;;;;;;2.50;100.00;92206.91;5068596;28;20236;-75
2023/12/21 03:54:38;;;;;;;30.30;23.07;;;;;;;2.49;100.00;92202.78;5048413;28;20197;-74
2023/12/21 03:57:04;;;;;;;28.30;22.47;;;;;;;2.34;100.00;92208.50;5038099;28;20230;-75
2023/12/21 03:59:30;;;;;;;26.33;21.43;;;;;;;2.55;100.00;92212.13;5052675;28;20205;-74
2023/12/21 04:01:56;;;;;;;26.73;22.17;;;;;;;2.42;100.00;92184.13;5044183;28;20224;-75
2023/12/21 04:04:22;;;;;;;27.83;22.93;;;;;;;2.47;100.00;92209.94;5046498;28;20244;-75
2023/12/21 04:06:47;;;;;;;25.07;21.50;;;;;;;2.38;100.00;92190.78;5046454;28;20222;-75
2023/12/21 04:09:13;;;;;;;25.17;22.43;;;;;;;2.16;100.00;92200.28;5038894;28;20212;-75
2023/12/21 04:11:38;;;;;;;25.43;19.63;;;;;;;2.33;100.00;92206.97;5047427;28;20256;-74
2023/12/21 04:14:03;;;;;;;25.23;21.63;;;;;;;2.18;100.00;92205.97;5044117;28;20214;-74
2023/12/21 04:16:29;;;;;;;23.43;19.07;;;;;;;2.39;100.00;92225.81;5044619;28;20194;-73
2023/12/21 04:18:54;;;;;;;21.77;19.23;;;;;;;2.52;100.00;92192.00;5045664;28;20186;-74
2023/12/21 04:21:19;;;;;;;21.67;19.33;;;;;;;2.22;100.00;92194.19;5047647;28;20229;-75
2023/12/21 04:23:45;;;;;;;23.17;20.73;;;;;;;2.28;100.00;92213.81;5037817;28;20197;-75
2023/12/21 04:26:18;;;;;;;23.30;19.77;;;;;;;2.11;100.00;92192.50;5040054;28;20182;-75
2023/12/21 04:28:44;;;;;;;22.63;20.23;;;;;;;2.15;100.00;92199.50;5046659;28;20202;-75
2023/12/21 04:31:09;;;;;;;21.83;19.00;;;;;;;2.31;100.00;92219.28;5048325;28;20762;-75
2023/12/21 04:33:37;;;;;;;21.40;19.23;;;;;;;2.10;100.00;92196.09;5047018;28;20277;-75
2023/12/21 04:36:03;;;;;;;20.37;18.13;;;;;;;2.10;100.00;92180.63;5039218;28;20171;-75
2023/12/21 04:38:28;;;;;;;23.00;19.23;;;;;;;2.13;100.00;92214.41;5045413;28;20241;-75
2023/12/21 04:40:54;;;;;;;21.67;18.33;;;;;;;2.03;100.00;92221.19;5051603;28;21730;-77
2023/12/21 04:43:19;;;;;;;24.10;20.70;;;;;;;2.04;100.00;92220.22;5047383;28;20328;-77
2023/12/21 04:45:45;;;;;;;21.10;18.50;;;;;;;1.92;100.00;92214.34;5047284;28;20201;-76
2023/12/21 04:48:10;;;;;;;19.43;17.37;;;;;;;2.35;100.00;92235.06;5047945;28;20249;-76
2023/12/21 04:50:35;;;;;;;20.07;18.10;;;;;;;2.51;100.00;92229.06;5046591;28;20185;-73
2023/12/21 04:53:01;;;;;;;31.00;25.90;;;;;;;2.66;100.00;92221.53;5045173;28;20512;-75
2023/12/21 04:55:26;;;;;;;20.47;17.43;;;;;;;2.91;100.00;92224.41;5047801;28;20197;-75
2023/12/21 04:57:52;;;;;;;20.53;18.53;;;;;;;2.59;100.00;92215.75;5043500;28;20222;-75
2023/12/21 05:00:17;;;;;;;20.63;17.27;;;;;;;2.76;100.00;92225.00;5047527;28;20186;-74
2023/12/21 05:02:42;;;;;;;18.53;16.60;;;;;;;2.74;99.77;92218.53;5039094;28;20270;-75
2023/12/21 05:05:08;;;;;;;20.17;18.20;;;;;;;2.28;100.00;92211.25;5045576;28;20217;-75
2023/12/21 05:07:33;;;;;;;19.70;17.80;;;;;;;2.48;100.00;92230.31;5052167;28;20222;-76
2023/12/21 05:10:00;;;;;;;20.33;18.23;;;;;;;2.58;100.00;92229.66;5061846;28;20204;-77
2023/12/21 05:12:26;;;;;;;21.00;18.90;;;;;;;2.75;99.89;92214.94;5057562;28;20226;-79
2023/12/21 05:14:52;;;;;;;20.40;18.20;;;;;;;3.00;98.38;92215.22;5041739;28;20194;-78
2023/12/21 05:17:17;;;;;;;19.23;17.23;;;;;;;2.83;99.24;92214.50;5054245;28;20244;-76
2023/12/21 05:19:44;;;;;;;18.47;16.60;;;;;;;2.75;100.00;92231.19;5064720;28;20257;-78
2023/12/21 05:22:09;;;;;;;18.97;17.30;;;;;;;2.77;100.00;92238.66;5054478;28;20240;-75
2023/12/21 05:24:40;;;;;;;19.30;17.50;;;;;;;2.78;99.50;92225.53;5064881;28;20224;-75
2023/12/21 05:27:06;;;;;;;17.77;16.07;;;;;;;2.82;99.42;92231.75;5067681;28;20241;-80
2023/12/21 05:29:31;;;;;;;18.77;16.77;;;;;;;2.78;99.59;92247.94;5071375;28;20173;-73
2023/12/21 05:31:56;;;;;;;18.13;16.43;;;;;;;2.72;99.10;92248.91;5068361;28;20250;-75
2023/12/21 05:34:22;;;;;;;17.67;15.93;;;;;;;2.73;100.00;92232.41;5068928;28;20197;-72
2023/12/21 05:36:47;;;;;;;19.87;17.83;;;;;;;2.72;99.63;92236.81;5070098;28;20231;-72
2023/12/21 05:39:13;;;;;;;23.87;21.73;;;;;;;3.10;100.00;92235.91;5063530;28;20213;-71
2023/12/21 05:41:38;;;;;;;19.07;17.37;;;;;;;2.88;97.93;92238.53;5064717;28;20222;-74
2023/12/21 05:44:04;;;;;;;17.97;16.43;;;;;;;2.71;98.24;92227.50;5063032;28;20224;-71
2023/12/21 05:46:30;;;;;;;18.27;16.53;;;;;;;2.67;97.27;92239.31;5066346;28;20241;-72
2023/12/21 05:48:55;;;;;;;17.87;16.33;;;;;;;2.71;98.78;92235.22;5070163;28;20182;-71
2023/12/21 05:51:20;;;;;;;17.93;16.23;;;;;;;2.68;98.01;92227.97;5070833;28;20204;-71
2023/12/21 05:53:46;;;;;;;19.63;17.83;;;;;;;2.61;98.14;92224.03;5068767;28;20189;-71
2023/12/21 05:56:11;;;;;;;18.33;16.57;;;;;;;2.32;97.25;92174.47;5070724;28;20189;-71
2023/12/21 05:58:36;;;;;;;17.07;15.53;;;;;;;2.70;98.01;92222.59;5051025;28;20232;-71
2023/12/21 06:01:02;;;;;;;20.33;17.47;;;;;;;2.79;96.95;92226.28;5042708;28;20179;-72
2023/12/21 06:03:27;;;;;;;18.30;16.70;;;;;;;2.73;96.46;92214.38;5047872;28;20325;-71
2023/12/21 06:05:53;;;;;;;18.30;16.40;;;;;;;2.91;96.47;92234.69;5050710;28;20186;-70
2023/12/21 06:08:18;;;;;;;17.33;15.77;;;;;;;2.55;95.96;92238.63;5043331;28;20339;-71
2023/12/21 06:10:43;;;;;;;18.13;16.27;;;;;;;2.53;97.13;92238.13;5049219;28;20186;-71
2023/12/21 06:13:09;;;;;;;18.47;16.63;;;;;;;2.67;96.70;92248.84;5046354;28;20233;-71
2023/12/21 06:15:34;;;;;;;18.73;16.77;;;;;;;2.57;96.72;92246.16;5045593;28;20254;-72
2023/12/21 06:17:59;;;;;;;23.13;17.90;;;;;;;1.89;100.00;92225.13;5040355;28;20214;-71
2023/12/21 06:20:26;;;;;;;19.73;17.57;;;;;;;2.49;98.69;92234.44;5049603;28;20206;-71
2023/12/21 06:22:51;;;;;;;24.13;18.47;;;;;;;2.34;97.95;92248.91;5041755;28;20226;-71
2023/12/21 06:25:16;;;;;;;21.87;19.63;;;;;;;2.51;97.80;92239.34;5047938;28;20212;-71
2023/12/21 06:27:42;;;;;;;19.63;17.13;;;;;;;2.70;96.58;92243.22;5062920;28;20217;-71
2023/12/21 06:30:08;;;;;;;21.00;17.33;;;;;;;2.73;96.87;92229.84;5061018;28;20190;-70
2023/12/21 06:32:34;;;;;;;17.87;15.70;;;;;;;2.88;95.89;92240.34;5065606;28;20225;-71
2023/12/21 06:34:59;;;;;;;18.63;16.77;;;;;;;2.95;96.52;92240.91;5069993;28;20196;-71
2023/12/21 06:37:24;;;;;;;19.13;17.33;;;;;;;2.97;96.54;92233.72;5064539;28;20394;-71
2023/12/21 06:39:50;;;;;;;22.20;18.53;;;;;;;3.01;95.88;92243.31;5062118;28;20190;-71
2023/12/21 06:42:15;;;;;;;18.07;16.20;;;;;;;3.16;95.26;92242.69;5065246;28;20244;-71
2023/12/21 06:44:41;;;;;;;18.43;16.63;;;;;;;2.92;94.25;92246.56;5056682;28;20225;-71
2023/12/21 06:47:06;;;;;;;18.60;16.77;;;;;;;2.95;94.87;92253.81;5069583;28;20229;-71
2023/12/21 06:49:31;;;;;;;17.73;16.10;;;;;;;2.90;95.38;92256.31;5070938;28;20629;-72
2023/12/21 06:51:57;;;;;;;19.13;17.20;;;;;;;2.85;95.63;92249.31;5059538;28;20253;-71
2023/12/21 06:54:22;;;;;;;17.97;16.17;;;;;;;2.92;95.09;92262.03;5064477;28;20201;-71
2023/12/21 06:56:47;;;;;;;21.50;17.07;;;;;;;2.71;95.07;92265.38;5066787;28;20299;-71
2023/12/21 06:59:13;;;;;;;23.07;19.33;;;;;;;2.84;94.96;92249.56;5065016;28;20243;-71
2023/12/21 07:01:38;;;;;;;23.80;19.27;;;;;;;2.97;95.24;92260.28;5068791;28;20231;-71
2023/12/21 07:04:03;;;;;;;20.73;18.63;;;;;;;3.21;94.74;92253.06;5062201;28;20237;-71
2023/12/21 07:06:29;;;;;;;20.67;18.40;;;;;;;3.32;93.99;92249.56;5068628;28;20197;-72
2023/12/21 07:08:54;;;;;;;27.07;19.47;;;;;;;3.41;93.75;92248.09;5067785;28;20201;-71
2023/12/21 07:11:20;;;;;;;22.13;18.17;;;;;;;3.32;93.34;92249.56;5058610;28;20182;-71
2023/12/21 07:13:45;;;;;;;20.17;18.27;;;;;;;3.28;94.17;92261.41;5065134;28;20189;-69
2023/12/21 07:16:11;;;;;;;18.97;16.90;;;;;;;3.31;94.47;92263.50;5070188;28;20195;-72
2023/12/21 07:18:37;;;;;;;19.97;18.03;;;;;;;3.37;94.43;92259.94;5066874;28;20213;-71
2023/12/21 07:21:03;;;;;;;20.13;17.97;;;;;;;3.62;93.57;92265.34;5058090;28;20237;-71
2023/12/21 07:23:29;;;;;;;18.53;16.73;;;;;;;3.48;92.70;92238.38;5054134;28;20233;-72
2023/12/21 07:25:54;;;;;;;22.47;20.07;;;;;;;3.27;93.23;92259.81;5046356;28;20198;-74
2023/12/21 07:28:20;;;;;;;21.27;17.33;;;;;;;3.19;92.13;92268.78;5050101;28;20245;-74
2023/12/21 07:30:45;;;;;;;20.10;18.10;;;;;;;3.49;93.79;92270.88;5047987;28;20189;-70
2023/12/21 07:33:11;;;;;;;22.00;18.93;;;;;;;3.81;91.15;92256.22;5031519;28;20241;-71
2023/12/21 07:35:37;;;;;;;19.47;17.30;;;;;;;3.87;92.64;92250.06;5048455;28;20206;-74
2023/12/21 07:38:03;;;;;;;22.67;20.27;;;;;;;4.13;90.24;92269.88;5052482;28;20774;-74
2023/12/21 07:40:28;;;;;;;20.27;17.87;;;;;;;4.18;88.55;92259.59;5069402;28;20185;-74
2023/12/21 07:42:53;;;;;;;20.17;17.37;;;;;;;3.89;89.47;92263.47;5074403;28;21165;-73
2023/12/21 07:45:19;;;;;;;18.53;16.70;;;;;;;3.79;89.92;92270.38;5062268;28;20277;-73
2023/12/21 07:47:44;;;;;;;19.53;17.77;;;;;;;3.88;89.87;92272.25;5059792;28;20232;-73
2023/12/21 07:50:10;;;;;;;20.40;17.90;;;;;;;3.86;89.35;92282.06;5064494;28;20190;-75
2023/12/21 07:52:35;;;;;;;17.70;16.03;;;;;;;4.11;88.98;92287.41;5058158;28;20237;-74
2023/12/21 07:55:01;;;;;;;18.63;16.77;;;;;;;4.16;87.30;92269.38;5066874;28;20193;-76
2023/12/21 07:57:26;;;;;;;18.47;16.60;;;;;;;4.39;87.28;92281.19;5068154;28;20221;-76
2023/12/21 07:59:51;;;;;;;18.90;17.00;;;;;;;4.10;87.01;92267.00;5067758;28;20201;-75
2023/12/21 08:02:17;;;;;;;17.80;16.20;;;;;;;4.07;85.13;92276.03;5070026;28;20280;-74
2023/12/21 08:04:43;;;;;;;13.93;12.77;;;;;;;4.04;82.15;92271.38;5066733;28;20213;-73
2023/12/21 08:07:08;;;;;;;15.30;14.00;;;;;;;3.97;82.85;92275.94;5067796;28;20225;-74
2023/12/21 08:09:33;;;;;;;16.77;15.40;;;;;;;3.76;83.50;92234.72;5067669;28;20257;-74
2023/12/21 08:11:59;;;;;;;15.93;14.30;;;;;;;4.05;82.80;92283.25;5068453;28;20236;-76
2023/12/21 08:14:27;;;;;;;14.33;13.13;;;;;;;3.91;83.14;92273.56;5068346;28;20213;-74
2023/12/21 08:16:53;;;;;;;15.13;13.83;;;;;;;3.97;83.16;92285.53;5067802;28;20217;-74
2023/12/21 08:19:18;;;;;;;15.47;14.07;;;;;;;3.90;82.98;92272.81;5078908;28;20272;-74
2023/12/21 08:21:44;;;;;;;15.93;14.73;;;;;;;4.33;83.44;92290.69;5063505;28;20232;-74
2023/12/21 08:24:10;;;;;;;16.87;14.77;;;;;;;4.40;82.44;92296.44;5066318;28;20228;-73
2023/12/21 08:26:35;;;;;;;17.77;15.93;;;;;;;4.27;83.84;92290.91;5068822;28;21590;-73
2023/12/21 08:29:01;;;;;;;17.57;15.77;;;;;;;4.18;84.25;92282.03;5060147;28;20752;-73
2023/12/21 08:31:27;;;;;;;15.90;14.30;;;;;;;4.26;82.70;92282.38;5060659;28;20202;-73
2023/12/21 08:33:53;;;;;;;15.43;14.00;;;;;;;4.10;82.90;92275.53;5060257;28;20189;-74
2023/12/21 08:36:18;;;;;;;15.43;14.03;;;;;;;4.17;82.35;92275.34;5061889;28;20185;-73
2023/12/21 08:38:43;;;;;;;15.53;14.13;;;;;;;3.89;82.48;92273.81;5047945;28;20194;-74
2023/12/21 08:41:09;;;;;;;14.23;13.23;;;;;;;4.02;83.15;92276.00;5048324;28;20209;-74
2023/12/21 08:43:36;;;;;;;15.30;14.03;;;;;;;4.00;83.63;92264.38;5047527;28;20236;-75
2023/12/21 08:46:01;;;;;;;15.50;14.13;;;;;;;4.13;84.12;92254.38;5041657;28;20198;-75
2023/12/21 08:48:27;;;;;;;15.50;14.23;;;;;;;4.03;82.93;92243.22;5065629;28;20232;-75
2023/12/21 08:50:52;;;;;;;15.40;13.83;;;;;;;4.26;82.19;92256.53;5064776;28;20189;-75
2023/12/21 08:53:18;;;;;;;14.73;13.57;;;;;;;4.09;80.92;92243.00;5050481;28;20375;-75
2023/12/21 08:55:44;;;;;;;15.20;13.97;;;;;;;4.26;80.55;92242.84;5041452;28;20194;-75
2023/12/21 08:58:10;;;;;;;15.93;14.57;;;;;;;4.27;81.80;92263.25;5048935;28;20306;-75
2023/12/21 09:00:36;;;;;;;14.93;13.80;;;;;;;4.59;80.48;92248.44;5050515;28;20198;-75
2023/12/21 09:03:01;;;;;;;13.07;11.97;;;;;;;4.68;78.22;92259.09;5056385;28;20225;-74
2023/12/21 09:05:26;;;;;;;15.30;14.00;;;;;;;4.58;79.06;92265.00;5079692;28;20194;-74
2023/12/21 09:07:52;;;;;;;15.27;14.27;;;;;;;4.72;79.45;92240.25;5046953;28;20218;-75
2023/12/21 09:10:17;;;;;;;15.43;14.13;;;;;;;5.05;77.39;92251.25;5044909;28;20257;-75
2023/12/21 09:12:43;;;;;;;14.17;12.97;;;;;;;5.07;78.57;92237.03;5061789;28;20335;-75
2023/12/21 09:15:09;;;;;;;14.27;13.17;;;;;;;5.03;77.02;92243.72;5059062;28;20201;-76
2023/12/21 09:17:34;;;;;;;16.50;15.20;;;;;;;4.91;77.99;92249.13;5067003;28;20302;-75
2023/12/21 09:20:00;;;;;;;14.53;13.27;;;;;;;4.97;80.22;92245.53;5077049;28;20216;-75
2023/12/21 09:22:26;;;;;;;14.80;13.67;;;;;;;4.97;78.48;92235.19;5069954;28;20225;-76
2023/12/21 09:24:51;;;;;;;15.43;14.23;;;;;;;4.93;79.77;92241.88;5066198;28;20259;-75
2023/12/21 09:27:16;;;;;;;15.23;13.93;;;;;;;5.09;78.31;92234.19;5070664;28;20224;-75
2023/12/21 09:29:42;;;;;;;15.60;14.30;;;;;;;4.85;77.68;92241.59;5069737;28;20174;-74
2023/12/21 09:32:08;;;;;;;14.37;13.37;;;;;;;4.58;78.38;92215.09;5069415;28;20226;-76
2023/12/21 09:34:34;;;;;;;14.17;13.17;;;;;;;4.82;77.48;92226.59;5070587;28;20184;-74
2023/12/21 09:36:59;;;;;;;15.93;14.73;;;;;;;4.87;78.48;92229.22;5070257;28;20254;-74
2023/12/21 09:39:24;;;;;;;14.83;13.17;;;;;;;4.79;77.77;92173.56;5062999;28;20197;-79
2023/12/21 09:41:50;;;;;;;16.80;15.30;;;;;;;4.97;78.82;92213.72;5062896;28;20244;-78
2023/12/21 09:44:17;;;;;;;15.93;14.63;;;;;;;5.34;78.06;92223.91;5067967;28;20278;-74
2023/12/21 09:46:48;;;;;;;13.90;12.67;;;;;;;4.97;78.74;92214.50;5067389;28;20255;-71
2023/12/21 09:49:16;;;;;;;13.90;12.83;;;;;;;5.45;77.25;92215.91;5063395;28;20173;-72
2023/12/21 09:51:44;;;;;;;15.47;14.17;;;;;;;5.09;79.97;92196.16;5071389;28;20232;-72
2023/12/21 09:54:10;;;;;;;15.67;14.17;;;;;;;5.09;78.60;92198.72;5065035;28;20249;-70
2023/12/21 09:56:36;;;;;;;16.93;15.30;;;;;;;5.14;78.55;92182.47;5068238;28;20198;-72
2023/12/21 09:59:03;;;;;;;15.60;13.87;;;;;;;5.03;78.44;92186.06;5067701;28;20181;-72
2023/12/21 10:01:28;;;;;;;13.50;12.27;;;;;;;5.22;78.40;92187.13;5071179;28;20284;-72
2023/12/21 10:03:53;;;;;;;14.70;13.60;;;;;;;5.36;77.94;92185.59;5057663;28;20218;-70
2023/12/21 10:06:19;;;;;;;14.87;13.50;;;;;;;5.65;77.94;92192.59;5071169;28;20217;-72
2023/12/21 10:08:44;;;;;;;14.83;13.50;;;;;;;5.63;77.00;92176.59;5070380;28;20224;-71
2023/12/21 10:11:10;;;;;;;15.70;14.37;;;;;;;5.85;76.48;92179.69;5068658;28;20212;-76
2023/12/21 10:13:35;;;;;;;15.70;14.27;;;;;;;5.79;77.31;92164.41;5050812;28;20222;-77
2023/12/21 10:16:03;;;;;;;15.20;13.90;;;;;;;5.73;77.21;92171.38;5046505;28;20250;-74
2023/12/21 10:18:31;;;;;;;15.33;13.97;;;;;;;5.53;76.85;92149.88;5044506;28;20226;-74
2023/12/21 10:20:57;;;;;;;15.27;14.10;;;;;;;5.58;76.36;92162.84;5045919;28;20214;-76
2023/12/21 10:23:24;;;;;;;15.13;13.90;;;;;;;5.35;76.62;92146.03;5062913;28;20256;-74
2023/12/21 10:25:50;;;;;;;15.73;14.30;;;;;;;5.36;78.05;92160.50;5068823;28;20219;-75
2023/12/21 10:28:15;;;;;;;15.10;13.53;;;;;;;5.43;78.87;92144.72;5054772;28;20226;-74
2023/12/21 10:30:41;;;;;;;14.47;13.30;;;;;;;5.38;78.84;92152.47;5049939;28;20214;-75
2023/12/21 10:33:09;;;;;;;15.90;14.50;;;;;;;5.62;77.94;92153.53;5059391;28;20225;-74
2023/12/21 10:35:37;;;;;;;15.93;14.50;;;;;;;5.72;77.83;92149.13;5060563;28;20182;-73
2023/12/21 10:38:03;;;;;;;16.00;14.57;;;;;;;5.68;78.16;92139.56;5064152;28;20241;-75
2023/12/21 10:40:29;;;;;;;16.50;15.03;;;;;;;5.28;78.95;92113.63;5067074;28;20181;-76
2023/12/21 10:42:56;;;;;;;15.43;14.13;;;;;;;5.43;78.78;92122.19;5070077;28;20221;-76
2023/12/21 10:45:22;;;;;;;14.70;13.53;;;;;;;5.65;78.84;92130.47;5068475;28;20224;-76
2023/12/21 10:47:55;;;;;;;15.80;14.43;;;;;;;5.48;77.40;92117.00;5055599;28;20375;-75
2023/12/21 10:50:21;;;;;;;15.27;14.03;;;;;;;5.65;78.55;92116.78;5038476;28;20213;-74
2023/12/21 10:52:47;;;;;;;14.50;13.13;;;;;;;5.82;78.05;92122.47;5057893;28;20213;-75
2023/12/21 10:55:17;;;;;;;15.67;13.97;;;;;;;5.67;77.13;92125.81;5069524;28;20201;-75
2023/12/21 10:57:43;;;;;;;14.60;13.50;;;;;;;5.60;76.60;92114.19;5046937;28;20295;-74
2023/12/21 11:00:15;;;;;;;15.30;13.90;;;;;;;5.90;76.24;92098.63;5049898;28;20219;-75
2023/12/21 11:02:45;;;;;;;14.13;13.10;;;;;;;5.89;75.84;92087.50;5046035;28;20230;-75
2023/12/21 11:05:19;;;;;;;14.87;13.63;;;;;;;6.10;74.38;92077.84;5044022;28;20233;-72
2023/12/21 11:07:49;;;;;;;14.40;13.10;;;;;;;6.21;74.48;92058.66;5044761;28;20229;-77
2023/12/21 11:10:18;;;;;;;15.50;14.07;;;;;;;6.37;74.02;92068.69;5048885;28;20198;-78
2023/12/21 11:12:43;;;;;;;15.03;13.83;;;;;;;5.91;73.47;92076.88;5048211;28;20260;-77
2023/12/21 11:15:11;;;;;;;15.17;13.83;;;;;;;6.00;73.91;92062.31;5042738;28;20254;-76
2023/12/21 11:17:39;;;;;;;13.87;12.73;;;;;;;6.21;73.83;92074.94;5038376;28;20359;-77